Time;durP1;ratioP1;P1;durP2;ratioP2;P2;SDS_P1;SDS_P2;PMS_P1;PMS_P2;Temp;Humidity;BMP_temperature;BMP_pressure;BME280_temperature;BME280_humidity;BME280_pressure;Samples;Min_cycle;Max_cycle;Signal;HPM_P1;HPM_P2
2022/09/27 00:01:00;;;;;;;12.23;6.95;;;;;;;;;;5111340;28;20174;-74
2022/09/27 00:03:27;;;;;;;9.32;5.85;;;;;;;;;;5111244;28;20020;-74
2022/09/27 00:06:07;;;;;;;8.10;6.20;;;;;;;;;;5109483;28;20039;-74
2022/09/27 00:08:34;;;;;;;14.10;6.60;;;;;;;;;;5111213;28;20032;-74
2022/09/27 00:11:01;;;;;;;10.25;6.90;;;;;;;;;;5111173;28;20028;-75
2022/09/27 00:14:30;;;;;;;9.27;6.32;;;;;;;;;;5111368;27;20401;-74
2022/09/27 00:19:43;;;;;;;8.45;5.65;;;;;;;;;;5132002;27;20391;-74
2022/09/27 00:25:00;;;;;;;11.90;6.35;;;;;;;;;;5111843;27;20414;-74
2022/09/27 00:27:27;;;;;;;8.55;6.57;;;;;;;;;;5111037;28;20028;-74
2022/09/27 00:29:54;;;;;;;9.10;6.78;;;;;;;;;;5111402;28;20511;-74
2022/09/27 00:32:20;;;;;;;10.13;6.43;;;;;;;;;;5111369;28;20103;-75
2022/09/27 00:34:46;;;;;;;9.15;6.25;;;;;;;;;;5110888;28;20436;-75
2022/09/27 00:39:01;;;;;;;7.68;5.70;;;;;;;;;;5111453;27;20450;-74
2022/09/27 00:41:31;;;;;;;8.75;5.60;;;;;;;;;;5111093;28;20024;-74
2022/09/27 00:43:58;;;;;;;8.82;6.60;;;;;;;;;;5111291;28;20027;-74
2022/09/27 00:46:36;;;;;;;8.05;6.03;;;;;;;;;;5111336;28;20020;-74
2022/09/27 00:50:26;;;;;;;9.23;6.28;;;;;;;;;;5111619;27;20392;-74
2022/09/27 00:52:55;;;;;;;10.43;7.38;;;;;;;;;;5111408;28;20443;-75
2022/09/27 00:57:20;;;;;;;10.45;7.50;;;;;;;;;;5111476;27;20423;-74
2022/09/27 00:59:52;;;;;;;11.02;7.80;;;;;;;;;;5111456;28;20024;-74
2022/09/27 01:03:21;;;;;;;10.93;6.95;;;;;;;;;;5111095;27;20414;-74
2022/09/27 01:07:07;;;;;;;8.60;6.50;;;;;;;;;;5051614;28;20431;-74
2022/09/27 01:09:34;;;;;;;9.60;6.80;;;;;;;;;;5050485;28;20112;-74
2022/09/27 01:12:00;;;;;;;9.55;7.47;;;;;;;;;;5049514;28;20037;-74
2022/09/27 01:14:41;;;;;;;10.57;7.22;;;;;;;;;;5050763;28;20029;-74
2022/09/27 01:17:07;;;;;;;11.32;8.20;;;;;;;;;;5050459;28;20469;-74
2022/09/27 01:19:56;;;;;;;9.02;6.95;;;;;;;;;;5050651;28;20059;-74
2022/09/27 01:22:25;;;;;;;9.95;6.63;;;;;;;;;;5050404;28;20108;-74
2022/09/27 01:24:55;;;;;;;8.43;6.10;;;;;;;;;;5050718;28;20031;-74
2022/09/27 01:27:24;;;;;;;9.60;7.32;;;;;;;;;;5050817;28;20043;-74
2022/09/27 01:29:59;;;;;;;8.93;7.05;;;;;;;;;;5050123;28;20487;-74
2022/09/27 01:35:47;;;;;;;9.82;7.78;;;;;;;;;;5111929;27;20389;-75
2022/09/27 01:38:19;;;;;;;8.70;6.90;;;;;;;;;;5111099;28;20518;-74
2022/09/27 01:42:26;;;;;;;10.27;7.22;;;;;;;;;;5111511;27;20784;-74
2022/09/27 01:44:57;;;;;;;11.13;6.88;;;;;;;;;;5111101;28;20113;-74
2022/09/27 01:49:39;;;;;;;9.95;8.07;;;;;;;;;;5111690;27;20842;-74
2022/09/27 01:52:07;;;;;;;10.93;7.70;;;;;;;;;;5111301;28;20031;-74
2022/09/27 01:54:45;;;;;;;9.63;6.93;;;;;;;;;;5111464;28;20383;-74
2022/09/27 01:57:13;;;;;;;9.18;7.15;;;;;;;;;;5111523;28;20389;-74
2022/09/27 01:59:50;;;;;;;9.52;7.00;;;;;;;;;;5110809;28;20059;-74
2022/09/27 02:02:18;;;;;;;10.48;7.78;;;;;;;;;;5111256;28;20043;-74
2022/09/27 02:04:44;;;;;;;10.02;7.68;;;;;;;;;;5111044;28;20030;-75
2022/09/27 02:07:16;;;;;;;11.40;8.13;;;;;;;;;;5111344;28;20051;-74
2022/09/27 02:09:57;;;;;;;13.00;8.48;;;;;;;;;;5111142;28;20024;-74
2022/09/27 02:13:05;;;;;;;9.57;6.95;;;;;;;;;;5111095;27;20793;-74
2022/09/27 02:20:21;;;;;;;10.50;7.38;;;;;;;;;;5111177;27;20108;-74
2022/09/27 02:23:16;;;;;;;11.95;8.23;;;;;;;;;;5112191;27;20377;-75
2022/09/27 02:27:06;;;;;;;12.32;8.30;;;;;;;;;;5111448;27;20393;-74
2022/09/27 02:29:39;;;;;;;11.13;7.95;;;;;;;;;;5110309;28;20085;-74
2022/09/27 02:32:17;;;;;;;11.75;8.63;;;;;;;;;;5112078;27;20426;-74
2022/09/27 02:34:44;;;;;;;10.63;8.57;;;;;;;;;;5110902;28;20073;-75
2022/09/27 02:37:10;;;;;;;10.75;8.43;;;;;;;;;;5111506;28;20032;-75
2022/09/27 02:39:36;;;;;;;92.43;57.95;;;;;;;;;;5111259;28;20032;-74
2022/09/27 02:42:04;;;;;;;10.27;7.88;;;;;;;;;;5110850;28;20032;-74
2022/09/27 02:44:30;;;;;;;11.35;8.40;;;;;;;;;;5111188;28;20031;-74
2022/09/27 02:47:02;;;;;;;10.43;7.85;;;;;;;;;;5110766;28;20089;-74
2022/09/27 02:54:39;;;;;;;11.20;9.90;;;;;;;;;;5110977;27;20119;-74
2022/09/27 02:57:26;;;;;;;12.80;10.73;;;;;;;;;;5111567;28;20034;-76
2022/09/27 03:01:49;;;;;;;12.30;9.68;;;;;;;;;;5111526;27;20384;-75
2022/09/27 03:05:48;;;;;;;13.20;10.75;;;;;;;;;;5132212;27;20309;-74
2022/09/27 03:09:19;;;;;;;13.90;11.30;;;;;;;;;;5111265;27;20537;-75
2022/09/27 03:11:46;;;;;;;14.52;11.88;;;;;;;;;;5111610;28;20058;-74
2022/09/27 03:14:41;;;;;;;13.55;10.55;;;;;;;;;;5111897;27;20414;-75
2022/09/27 03:18:46;;;;;;;11.55;9.55;;;;;;;;;;5111495;27;20393;-74
2022/09/27 03:21:12;;;;;;;14.13;11.02;;;;;;;;;;5111541;28;20024;-75
2022/09/27 03:23:38;;;;;;;12.20;10.68;;;;;;;;;;5111007;28;20019;-75
2022/09/27 03:26:04;;;;;;;14.10;11.20;;;;;;;;;;5111389;28;20023;-75
2022/09/27 03:29:15;;;;;;;11.50;9.63;;;;;;;;;;5173440;27;20596;-75
2022/09/27 03:31:41;;;;;;;12.25;9.25;;;;;;;;;;5152806;27;20038;-75
2022/09/27 03:34:08;;;;;;;11.40;9.73;;;;;;;;;;5152492;27;20044;-75
2022/09/27 03:36:34;;;;;;;12.52;10.45;;;;;;;;;;5152046;27;20027;-75
2022/09/27 03:39:38;;;;;;;12.43;10.50;;;;;;;;;;5111677;27;20454;-75
2022/09/27 03:43:35;;;;;;;15.02;10.93;;;;;;;;;;5111673;27;20392;-75
2022/09/27 03:50:17;;;;;;;12.50;10.05;;;;;;;;;;5051139;28;20427;-75
2022/09/27 03:52:43;;;;;;;11.90;9.88;;;;;;;;;;5049659;28;20053;-75
2022/09/27 04:01:15;;;;;;;11.93;9.55;;;;;;;;;;5112149;27;20400;-75
2022/09/27 04:03:41;;;;;;;11.98;10.30;;;;;;;;;;5111302;28;20486;-75
2022/09/27 04:09:40;;;;;;;13.30;9.80;;;;;;;;;;5111591;27;20919;-75
2022/09/27 04:12:07;;;;;;;13.10;10.82;;;;;;;;;;5111150;28;20527;-75
2022/09/27 04:14:33;;;;;;;13.27;10.77;;;;;;;;;;5111440;28;20020;-75
2022/09/27 04:17:32;;;;;;;13.10;11.70;;;;;;;;;;5112014;27;20422;-75
2022/09/27 04:21:24;;;;;;;13.48;11.52;;;;;;;;;;5111708;27;20418;-75
2022/09/27 04:23:50;;;;;;;12.75;10.75;;;;;;;;;;5111317;28;20484;-75
2022/09/27 04:26:16;;;;;;;12.07;10.18;;;;;;;;;;5109500;28;20106;-75
2022/09/27 04:30:10;;;;;;;11.95;10.38;;;;;;;;;;5111610;27;20117;-75
2022/09/27 04:38:24;;;;;;;11.88;8.85;;;;;;;;;;5111380;28;20081;-76
2022/09/27 04:40:50;;;;;;;12.05;9.20;;;;;;;;;;5111026;28;20035;-76
2022/09/27 04:43:17;;;;;;;13.02;9.77;;;;;;;;;;5111311;28;20034;-76
2022/09/27 04:46:30;;;;;;;12.30;9.10;;;;;;;;;;5111272;27;20496;-75
2022/09/27 04:48:59;;;;;;;11.63;9.57;;;;;;;;;;5111395;28;20112;-75
2022/09/27 04:51:26;;;;;;;12.55;10.20;;;;;;;;;;5111370;28;20197;-75
2022/09/27 04:54:32;;;;;;;14.68;12.38;;;;;;;;;;5111359;27;20781;-75
2022/09/27 04:58:05;;;;;;;13.38;11.25;;;;;;;;;;5111560;27;20392;-75
2022/09/27 05:01:49;;;;;;;12.30;10.07;;;;;;;;;;5111287;27;20927;-75
2022/09/27 05:04:15;;;;;;;12.07;10.07;;;;;;;;;;5111363;28;20475;-75
2022/09/27 05:06:41;;;;;;;11.52;9.45;;;;;;;;;;5107689;28;20031;-73
2022/09/27 05:09:07;;;;;;;15.02;10.90;;;;;;;;;;5109414;28;20055;-72
2022/09/27 05:11:36;;;;;;;16.92;13.43;;;;;;;;;;5110565;28;20020;-72
2022/09/27 05:18:07;;;;;;;22.10;19.77;;;;;;;;;;5110512;27;20420;-70
2022/09/27 05:20:33;;;;;;;21.02;18.00;;;;;;;;;;5109960;28;20077;-71
2022/09/27 05:24:02;;;;;;;16.83;14.60;;;;;;;;;;5107907;27;20971;-73
2022/09/27 05:26:28;;;;;;;16.15;12.85;;;;;;;;;;5108614;28;20057;-73
2022/09/27 05:31:55;;;;;;;14.98;10.32;;;;;;;;;;5066349;28;20481;-72
2022/09/27 05:34:21;;;;;;;14.35;11.82;;;;;;;;;;5061267;28;20021;-71
2022/09/27 05:36:48;;;;;;;16.63;13.13;;;;;;;;;;5058902;28;20112;-70
2022/09/27 05:39:55;;;;;;;16.40;13.40;;;;;;;;;;5093082;27;20402;-70
2022/09/27 05:42:22;;;;;;;13.48;10.63;;;;;;;;;;5084194;28;20027;-71
2022/09/27 05:44:48;;;;;;;14.15;10.70;;;;;;;;;;5080552;28;20020;-70
2022/09/27 05:47:14;;;;;;;18.85;12.93;;;;;;;;;;5084817;28;20490;-70
2022/09/27 05:49:40;;;;;;;15.85;11.27;;;;;;;;;;5082802;28;20123;-70
2022/09/27 05:52:07;;;;;;;15.55;10.70;;;;;;;;;;5065405;28;20320;-71
2022/09/27 05:54:33;;;;;;;15.68;10.68;;;;;;;;;;5065952;28;20021;-69
2022/09/27 05:56:59;;;;;;;14.80;13.02;;;;;;;;;;5075360;28;20059;-74
2022/09/27 05:59:26;;;;;;;14.98;11.65;;;;;;;;;;5082109;28;20040;-73
2022/09/27 06:01:53;;;;;;;14.23;11.07;;;;;;;;;;5077646;28;20032;-73
2022/09/27 06:05:51;;;;;;;14.18;12.30;;;;;;;;;;5105931;27;20420;-72
2022/09/27 06:08:19;;;;;;;14.73;10.73;;;;;;;;;;5107144;28;20106;-71
2022/09/27 06:13:05;;;;;;;13.23;9.90;;;;;;;;;;5067289;28;20466;-71
2022/09/27 06:15:32;;;;;;;15.63;11.80;;;;;;;;;;5067371;28;20029;-71
2022/09/27 06:19:16;;;;;;;14.45;10.50;;;;;;;;;;5109005;27;20393;-71
2022/09/27 06:21:42;;;;;;;14.90;11.38;;;;;;;;;;5105984;28;20020;-71
2022/09/27 06:27:42;;;;;;;11.23;9.48;;;;;;;;;;5110314;27;20970;-71
2022/09/27 06:30:11;;;;;;;11.80;8.90;;;;;;;;;;5110426;28;20027;-70
2022/09/27 06:34:00;;;;;;;10.98;8.30;;;;;;;;;;5067823;28;20426;-70
2022/09/27 06:36:26;;;;;;;12.07;8.88;;;;;;;;;;5081607;28;20052;-69
2022/09/27 06:38:52;;;;;;;10.23;8.35;;;;;;;;;;5064793;28;20025;-71
2022/09/27 06:41:18;;;;;;;10.82;7.43;;;;;;;;;;5067965;28;20066;-69
2022/09/27 06:43:45;;;;;;;11.55;8.30;;;;;;;;;;5068279;28;20023;-71
2022/09/27 06:46:11;;;;;;;13.02;9.18;;;;;;;;;;5061570;28;20170;-70
2022/09/27 06:50:50;;;;;;;11.65;7.60;;;;;;;;;;5069656;28;20415;-70
2022/09/27 06:53:16;;;;;;;10.48;7.70;;;;;;;;;;5053015;28;20031;-70
2022/09/27 06:55:43;;;;;;;10.55;9.07;;;;;;;;;;5058127;28;20416;-71
2022/09/27 07:00:55;;;;;;;11.50;8.32;;;;;;;;;;5049401;28;20033;-69
2022/09/27 07:03:40;;;;;;;8.82;6.57;;;;;;;;;;5110627;27;20385;-70
2022/09/27 07:06:07;;;;;;;9.32;6.65;;;;;;;;;;5130019;28;20031;-70
2022/09/27 07:08:34;;;;;;;9.60;6.65;;;;;;;;;;5129354;28;20105;-71
2022/09/27 07:11:02;;;;;;;8.48;6.25;;;;;;;;;;5130552;28;20094;-69
2022/09/27 07:15:45;;;;;;;9.98;7.20;;;;;;;;;;5110431;27;20803;-69
2022/09/27 07:20:42;;;;;;;9.05;6.45;;;;;;;;;;5029224;28;20548;-69
2022/09/27 07:23:10;;;;;;;9.57;6.57;;;;;;;;;;5029023;28;20108;-70
2022/09/27 07:26:42;;;;;;;9.95;7.00;;;;;;;;;;5065821;28;20412;-71
2022/09/27 07:31:09;;;;;;;7.80;6.05;;;;;;;;;;5105023;27;20392;-71
2022/09/27 07:36:10;;;;;;;7.72;5.30;;;;;;;;;;5105618;27;20462;-71
2022/09/27 07:38:36;;;;;;;7.85;5.15;;;;;;;;;;5089856;28;20028;-70
2022/09/27 07:42:01;;;;;;;61.53;30.67;;;;;;;;;;5107147;27;20384;-70
2022/09/27 07:44:27;;;;;;;6.88;5.03;;;;;;;;;;5107280;28;20508;-71
2022/09/27 07:48:34;;;;;;;9.82;5.53;;;;;;;;;;5107012;27;20669;-71
2022/09/27 07:51:00;;;;;;;7.78;4.75;;;;;;;;;;5104171;28;20034;-70
2022/09/27 07:55:11;;;;;;;759.35;615.38;;;;;;;;;;5067798;28;20395;-70
2022/09/27 08:00:06;;;;;;;10.00;5.57;;;;;;;;;;5066284;28;20996;-72
2022/09/27 08:02:46;;;;;;;8.25;4.80;;;;;;;;;;5107665;27;20420;-69
2022/09/27 08:05:12;;;;;;;5.60;3.95;;;;;;;;;;5105161;28;20387;-67
2022/09/27 08:07:39;;;;;;;8.77;4.60;;;;;;;;;;5093639;28;20027;-69
2022/09/27 08:11:47;;;;;;;5.68;3.33;;;;;;;;;;5104785;27;20389;-68
2022/09/27 08:16:22;;;;;;;8.85;4.10;;;;;;;;;;5106484;27;20388;-69
2022/09/27 08:19:07;;;;;;;7.85;4.53;;;;;;;;;;5105235;27;20392;-69
2022/09/27 08:21:33;;;;;;;8.73;4.75;;;;;;;;;;5106589;28;20123;-69
2022/09/27 08:24:00;;;;;;;6.53;4.40;;;;;;;;;;5106067;28;20057;-69
2022/09/27 08:26:27;;;;;;;6.78;4.03;;;;;;;;;;5105582;28;20031;-72
2022/09/27 08:30:45;;;;;;;5.75;4.05;;;;;;;;;;5107866;27;20430;-71
2022/09/27 08:33:11;;;;;;;8.82;4.53;;;;;;;;;;5105960;28;20455;-70
2022/09/27 08:39:04;;;;;;;5.70;3.45;;;;;;;;;;5167528;27;20117;-72
2022/09/27 08:41:45;;;;;;;8.38;3.95;;;;;;;;;;5148598;27;20026;-72
2022/09/27 08:49:33;;;;;;;5.55;3.40;;;;;;;;;;5106209;27;20121;-73
2022/09/27 08:51:59;;;;;;;875.25;595.15;;;;;;;;;;5107776;28;20028;-69
2022/09/27 08:54:28;;;;;;;823.75;604.42;;;;;;;;;;5076616;28;20487;-71
2022/09/27 08:56:58;;;;;;;879.40;594.72;;;;;;;;;;5086544;28;20055;-71
2022/09/27 08:59:27;;;;;;;826.60;584.42;;;;;;;;;;5086056;28;20028;-72
2022/09/27 09:04:04;;;;;;;5.25;3.20;;;;;;;;;;5107096;27;20401;-69
2022/09/27 09:06:39;;;;;;;4.03;2.80;;;;;;;;;;5105265;28;20442;-71
2022/09/27 09:09:26;;;;;;;5.60;2.92;;;;;;;;;;5085524;28;20055;-70
2022/09/27 09:14:49;;;;;;;5.18;2.97;;;;;;;;;;5090182;28;20084;-70
2022/09/27 09:19:34;;;;;;;5.10;2.45;;;;;;;;;;5082793;27;20483;-70
2022/09/27 09:22:09;;;;;;;4.65;3.05;;;;;;;;;;5082617;28;20373;-71
2022/09/27 09:24:42;;;;;;;5.22;3.00;;;;;;;;;;5082284;28;20028;-72
2022/09/27 09:27:51;;;;;;;4.85;3.00;;;;;;;;;;5066455;28;20384;-71
2022/09/27 09:30:22;;;;;;;5.22;2.35;;;;;;;;;;5066927;28;20029;-72
2022/09/27 09:32:57;;;;;;;3.75;2.42;;;;;;;;;;5068373;28;20025;-71
2022/09/27 09:35:30;;;;;;;5.20;2.30;;;;;;;;;;5060825;28;20036;-73
2022/09/27 09:37:58;;;;;;;3.75;2.03;;;;;;;;;;5054031;28;20082;-73
2022/09/27 09:40:28;;;;;;;3.50;2.25;;;;;;;;;;5051798;28;20124;-71
2022/09/27 09:43:00;;;;;;;4.00;2.17;;;;;;;;;;5048720;28;20025;-72
2022/09/27 09:46:54;;;;;;;3.42;2.08;;;;;;;;;;5100956;27;20412;-70
2022/09/27 09:49:41;;;;;;;4.07;2.33;;;;;;;;;;5101948;28;20109;-72
2022/09/27 09:52:43;;;;;;;3.00;2.03;;;;;;;;;;5101385;27;20430;-71
2022/09/27 09:55:16;;;;;;;3.53;1.90;;;;;;;;;;5089674;28;20036;-71
2022/09/27 09:58:02;;;;;;;3.95;2.15;;;;;;;;;;5097965;28;20020;-72
2022/09/27 10:00:29;;;;;;;4.55;2.13;;;;;;;;;;5092185;28;20036;-71
2022/09/27 10:02:57;;;;;;;4.03;2.45;;;;;;;;;;5093207;28;20032;-72
2022/09/27 10:05:25;;;;;;;2.90;1.80;;;;;;;;;;5085880;28;20052;-71
2022/09/27 10:11:54;;;;;;;3.88;2.00;;;;;;;;;;5059125;28;20411;-70
2022/09/27 10:14:21;;;;;;;5.32;1.50;;;;;;;;;;5046823;28;20033;-71
2022/09/27 10:16:48;;;;;;;5.13;2.35;;;;;;;;;;5045753;28;20104;-71
2022/09/27 10:19:21;;;;;;;3.45;1.42;;;;;;;;;;5045648;28;20029;-71
2022/09/27 10:21:49;;;;;;;4.18;1.60;;;;;;;;;;5046322;28;20025;-70
2022/09/27 10:24:15;;;;;;;3.83;2.00;;;;;;;;;;5046401;28;20025;-71
2022/09/27 10:26:44;;;;;;;2.70;1.90;;;;;;;;;;5047525;28;20029;-71
2022/09/27 10:29:19;;;;;;;4.18;1.75;;;;;;;;;;5047268;28;20619;-71
2022/09/27 10:31:47;;;;;;;4.68;1.60;;;;;;;;;;5046759;28;20083;-71
2022/09/27 10:36:26;;;;;;;2.60;1.58;;;;;;;;;;5097562;27;1546601;-71
2022/09/27 10:42:34;;;;;;;5.28;2.25;;;;;;;;;;5047148;28;20044;-71
2022/09/27 10:46:30;;;;;;;4.13;1.83;;;;;;;;;;5107172;27;20119;-72
2022/09/27 10:49:11;;;;;;;2.85;1.83;;;;;;;;;;5117418;28;20015;-75
2022/09/27 10:51:38;;;;;;;4.00;1.63;;;;;;;;;;5127986;27;20024;-75
2022/09/27 10:54:04;;;;;;;3.67;1.58;;;;;;;;;;5126645;28;20445;-75
2022/09/27 10:57:51;;;;;;;3.92;1.70;;;;;;;;;;5056909;28;20435;-74
2022/09/27 11:00:26;;;;;;;5.35;2.47;;;;;;;;;;5041912;28;20031;-77
2022/09/27 11:02:54;;;;;;;4.28;1.77;;;;;;;;;;5046510;28;20413;-76
2022/09/27 11:05:26;;;;;;;1.95;1.35;;;;;;;;;;5040539;28;20096;-76
2022/09/27 11:07:54;;;;;;;2.77;1.50;;;;;;;;;;5047322;28;20032;-76
2022/09/27 11:10:23;;;;;;;3.03;1.90;;;;;;;;;;5049565;28;20255;-75
2022/09/27 11:13:22;;;;;;;3.97;1.73;;;;;;;;;;5048520;28;20484;-76
2022/09/27 11:16:03;;;;;;;5.47;2.08;;;;;;;;;;5034180;28;20087;-75
2022/09/27 11:19:21;;;;;;;4.97;2.30;;;;;;;;;;5106713;27;20433;-74
2022/09/27 11:21:55;;;;;;;3.80;1.63;;;;;;;;;;5120373;28;20402;-76
2022/09/27 11:24:21;;;;;;;2.67;1.95;;;;;;;;;;5107497;28;20380;-76
2022/09/27 11:27:04;;;;;;;4.25;1.80;;;;;;;;;;5124860;28;20445;-76
2022/09/27 11:29:53;;;;;;;3.67;1.77;;;;;;;;;;5107446;28;20027;-80
2022/09/27 11:32:48;;;;;;;2.60;1.75;;;;;;;;;;5108776;28;20572;-78
2022/09/27 11:35:15;;;;;;;2.70;1.75;;;;;;;;;;5067908;28;20048;-76
2022/09/27 11:37:43;;;;;;;2.45;1.63;;;;;;;;;;5089979;28;20121;-75
2022/09/27 11:40:15;;;;;;;4.07;1.85;;;;;;;;;;5113444;28;20024;-75
2022/09/27 11:44:43;;;;;;;4.60;1.40;;;;;;;;;;5108413;27;20392;-78
2022/09/27 11:47:28;;;;;;;3.83;1.55;;;;;;;;;;5107413;28;20062;-74
2022/09/27 11:49:57;;;;;;;2.65;1.23;;;;;;;;;;5108079;28;20027;-73
2022/09/27 11:52:33;;;;;;;2.85;1.63;;;;;;;;;;5108627;28;20055;-76
2022/09/27 11:55:02;;;;;;;2.55;1.75;;;;;;;;;;5109048;28;20441;-75
2022/09/27 11:57:33;;;;;;;2.45;1.10;;;;;;;;;;5106271;28;20012;-74
2022/09/27 12:00:04;;;;;;;2.63;1.40;;;;;;;;;;5106979;28;20066;-75
2022/09/27 12:02:49;;;;;;;2.03;1.50;;;;;;;;;;5106721;28;20378;-77
2022/09/27 12:05:33;;;;;;;4.40;1.30;;;;;;;;;;5102726;28;20028;-75
2022/09/27 12:08:12;;;;;;;2.55;1.30;;;;;;;;;;5107536;28;20164;-76
2022/09/27 12:10:40;;;;;;;4.70;1.88;;;;;;;;;;5107553;28;20016;-76
2022/09/27 12:13:11;;;;;;;3.30;1.65;;;;;;;;;;5107051;28;20016;-74
2022/09/27 12:17:43;;;;;;;2.83;1.52;;;;;;;;;;5108909;27;20686;-76
2022/09/27 12:20:14;;;;;;;5.03;1.73;;;;;;;;;;5107718;28;20027;-75
2022/09/27 12:22:47;;;;;;;2.80;1.20;;;;;;;;;;5107693;28;20099;-76
2022/09/27 12:25:16;;;;;;;3.08;1.40;;;;;;;;;;5105183;28;20019;-78
2022/09/27 12:27:55;;;;;;;2.85;1.40;;;;;;;;;;5108439;28;20027;-76
2022/09/27 12:30:21;;;;;;;2.05;1.05;;;;;;;;;;5106740;28;20415;-76
2022/09/27 12:32:57;;;;;;;4.25;1.30;;;;;;;;;;5108912;28;20048;-80
2022/09/27 12:35:36;;;;;;;2.63;1.30;;;;;;;;;;5110276;28;20016;-79
2022/09/27 12:38:04;;;;;;;4.35;1.58;;;;;;;;;;5110333;28;20536;-76
2022/09/27 12:40:39;;;;;;;2.63;1.40;;;;;;;;;;5110591;28;20391;-76
2022/09/27 12:43:08;;;;;;;2.83;1.80;;;;;;;;;;5110477;28;20027;-75
2022/09/27 12:45:43;;;;;;;4.53;1.90;;;;;;;;;;5110044;28;20120;-78
2022/09/27 12:48:21;;;;;;;4.22;1.45;;;;;;;;;;5114524;28;20085;-75
2022/09/27 12:50:50;;;;;;;1.60;1.20;;;;;;;;;;5129237;28;20020;-76
2022/09/27 12:53:22;;;;;;;2.40;1.38;;;;;;;;;;5130094;28;20054;-76
2022/09/27 12:55:51;;;;;;;2.45;1.10;;;;;;;;;;5110283;28;20357;-78
2022/09/27 12:58:27;;;;;;;3.97;1.15;;;;;;;;;;5110030;28;20055;-75
2022/09/27 13:00:57;;;;;;;4.25;1.52;;;;;;;;;;5108405;28;20016;-76
2022/09/27 13:03:34;;;;;;;3.60;2.00;;;;;;;;;;5109852;28;20031;-76
2022/09/27 13:06:14;;;;;;;3.15;1.63;;;;;;;;;;5109866;28;20024;-74
2022/09/27 13:08:47;;;;;;;921.92;759.83;;;;;;;;;;5109825;28;20035;-75
2022/09/27 13:11:22;;;;;;;1031.68;817.75;;;;;;;;;;5110193;28;20364;-74
2022/09/27 13:13:49;;;;;;;1056.63;772.92;;;;;;;;;;5109695;28;20031;-75
2022/09/27 13:16:15;;;;;;;1050.18;786.70;;;;;;;;;;5109898;28;20396;-75
2022/09/27 13:18:51;;;;;;;1064.93;781.80;;;;;;;;;;5110172;28;20016;-76
2022/09/27 13:21:43;;;;;;;1053.18;788.15;;;;;;;;;;5109789;28;20028;-75
2022/09/27 13:24:28;;;;;;;1068.30;734.53;;;;;;;;;;5109907;28;20043;-75
2022/09/27 13:26:57;;;;;;;1082.03;703.03;;;;;;;;;;5108699;28;20264;-76
2022/09/27 13:29:27;;;;;;;1076.53;729.78;;;;;;;;;;5094853;28;20027;-76
2022/09/27 13:31:53;;;;;;;1076.03;754.80;;;;;;;;;;5096609;28;20047;-77
2022/09/27 13:34:38;;;;;;;1070.57;757.10;;;;;;;;;;5096028;28;20051;-78
2022/09/27 13:37:23;;;;;;;1054.50;728.15;;;;;;;;;;5096200;28;20111;-77
2022/09/27 13:39:49;;;;;;;1042.63;705.13;;;;;;;;;;5096467;28;20476;-75
2022/09/27 13:42:30;;;;;;;1070.57;694.53;;;;;;;;;;5095950;28;20032;-75
2022/09/27 13:45:14;;;;;;;1082.10;714.13;;;;;;;;;;5096536;28;20020;-76
2022/09/27 13:47:45;;;;;;;1074.32;658.95;;;;;;;;;;5096152;28;20024;-75
2022/09/27 13:50:26;;;;;;;1085.85;592.33;;;;;;;;;;5094818;28;20048;-74
2022/09/27 13:52:58;;;;;;;1042.82;621.40;;;;;;;;;;5095914;28;20028;-76
2022/09/27 13:55:42;;;;;;;1080.85;610.28;;;;;;;;;;5095279;28;20032;-75
2022/09/27 13:58:27;;;;;;;1095.25;624.80;;;;;;;;;;5095752;28;20085;-76
2022/09/27 14:00:55;;;;;;;1087.18;604.97;;;;;;;;;;5094445;28;20169;-76
2022/09/27 14:03:34;;;;;;;1083.60;652.38;;;;;;;;;;5093931;28;20020;-75
2022/09/27 14:06:19;;;;;;;1078.43;621.13;;;;;;;;;;5095844;28;20475;-76
2022/09/27 14:08:50;;;;;;;1050.00;618.85;;;;;;;;;;5095547;28;20050;-76
2022/09/27 14:11:30;;;;;;;986.75;666.05;;;;;;;;;;5095033;28;20022;-76
2022/09/27 14:13:57;;;;;;;983.33;646.63;;;;;;;;;;5094071;28;20028;-76
2022/09/27 14:16:25;;;;;;;1002.42;625.30;;;;;;;;;;5094822;28;20545;-76
2022/09/27 14:19:30;;;;;;;986.70;617.78;;;;;;;;;;5111456;27;20421;-76
2022/09/27 14:23:19;;;;;;;873.72;635.10;;;;;;;;;;5110081;27;20396;-75
2022/09/27 14:25:47;;;;;;;922.80;648.67;;;;;;;;;;5110280;28;20436;-76
2022/09/27 14:28:39;;;;;;;909.92;638.05;;;;;;;;;;5111087;28;20030;-76
2022/09/27 14:31:06;;;;;;;851.00;637.67;;;;;;;;;;5107114;28;20089;-76
2022/09/27 14:33:33;;;;;;;846.97;632.08;;;;;;;;;;5110804;28;20280;-75
2022/09/27 14:38:47;;;;;;;814.97;633.67;;;;;;;;;;5110787;28;20089;-77
2022/09/27 14:41:14;;;;;;;816.15;630.70;;;;;;;;;;5110664;28;20050;-77
2022/09/27 14:43:45;;;;;;;833.03;643.60;;;;;;;;;;5110924;28;20100;-75
2022/09/27 14:46:25;;;;;;;790.80;642.15;;;;;;;;;;5110444;28;20130;-76
2022/09/27 14:48:51;;;;;;;787.60;641.72;;;;;;;;;;5118573;28;20044;-76
2022/09/27 14:53:04;;;;;;;810.35;635.13;;;;;;;;;;5110862;27;20738;-75
2022/09/27 14:55:58;;;;;;;802.15;638.85;;;;;;;;;;5110083;27;20612;-76
2022/09/27 14:58:25;;;;;;;816.80;629.00;;;;;;;;;;5111000;28;20032;-76
2022/09/27 15:01:59;;;;;;;788.85;624.95;;;;;;;;;;5111524;27;20453;-76
2022/09/27 15:04:26;;;;;;;782.83;605.90;;;;;;;;;;5111811;28;20024;-76
2022/09/27 15:06:53;;;;;;;765.45;552.13;;;;;;;;;;5112025;28;20024;-76
2022/09/27 15:09:19;;;;;;;806.67;573.90;;;;;;;;;;5111790;28;20459;-76
2022/09/27 15:11:50;;;;;;;836.75;592.63;;;;;;;;;;5111018;28;20047;-77
2022/09/27 15:14:21;;;;;;;834.53;648.95;;;;;;;;;;5110901;28;20019;-77
2022/09/27 15:16:48;;;;;;;868.75;655.17;;;;;;;;;;5111198;28;20019;-77
2022/09/27 15:19:22;;;;;;;897.08;636.20;;;;;;;;;;5111301;28;20020;-76
2022/09/27 15:21:49;;;;;;;888.35;670.42;;;;;;;;;;5110550;28;20447;-76
2022/09/27 15:24:33;;;;;;;898.55;653.42;;;;;;;;;;5110995;28;20020;-76
2022/09/27 15:27:00;;;;;;;930.25;653.50;;;;;;;;;;5110457;28;20031;-76
2022/09/27 15:29:26;;;;;;;892.53;682.90;;;;;;;;;;5110840;28;20077;-77
2022/09/27 15:31:59;;;;;;;907.90;669.90;;;;;;;;;;5109383;28;20034;-77
2022/09/27 15:34:26;;;;;;;904.53;706.25;;;;;;;;;;5110343;28;20020;-77
2022/09/27 15:37:02;;;;;;;911.67;717.72;;;;;;;;;;5110680;28;20038;-77
2022/09/27 15:39:31;;;;;;;861.83;747.55;;;;;;;;;;5111104;28;20019;-77
2022/09/27 15:42:04;;;;;;;852.60;722.13;;;;;;;;;;5110338;28;20081;-77
2022/09/27 15:44:38;;;;;;;865.42;730.92;;;;;;;;;;5110591;28;20023;-76
2022/09/27 15:47:05;;;;;;;877.60;699.45;;;;;;;;;;5110579;28;20368;-77
2022/09/27 15:49:34;;;;;;;878.53;715.72;;;;;;;;;;5109902;28;20020;-77
2022/09/27 15:52:03;;;;;;;874.45;696.92;;;;;;;;;;5109040;28;20020;-77
2022/09/27 15:54:32;;;;;;;889.10;696.70;;;;;;;;;;5110345;28;20023;-77
2022/09/27 15:57:03;;;;;;;865.42;719.83;;;;;;;;;;5109858;28;20020;-77
2022/09/27 15:59:30;;;;;;;860.30;712.63;;;;;;;;;;5110142;28;20020;-76
2022/09/27 16:01:57;;;;;;;849.47;706.65;;;;;;;;;;5110003;28;20032;-77
2022/09/27 16:04:25;;;;;;;851.75;724.25;;;;;;;;;;5110162;28;20019;-77
2022/09/27 16:06:51;;;;;;;826.70;676.95;;;;;;;;;;5110039;28;20027;-77
2022/09/27 16:09:18;;;;;;;849.40;680.42;;;;;;;;;;5109492;28;20055;-77
2022/09/27 16:13:15;;;;;;;835.35;676.75;;;;;;;;;;5111877;27;20380;-77
2022/09/27 16:15:41;;;;;;;843.63;680.47;;;;;;;;;;5111832;28;20028;-77
2022/09/27 16:18:07;;;;;;;827.33;674.60;;;;;;;;;;5110846;28;20020;-77
2022/09/27 16:20:33;;;;;;;822.20;671.03;;;;;;;;;;5111255;28;20063;-77
2022/09/27 16:22:59;;;;;;;817.92;662.47;;;;;;;;;;5110725;28;20054;-77
2022/09/27 16:25:56;;;;;;;771.13;552.83;;;;;;;;;;5111621;27;20405;-76
2022/09/27 16:28:22;;;;;;;733.65;515.72;;;;;;;;;;5111493;28;20024;-76
2022/09/27 16:30:48;;;;;;;794.83;590.95;;;;;;;;;;5110798;28;20353;-76
2022/09/27 16:33:14;;;;;;;788.20;575.42;;;;;;;;;;5111158;28;20035;-79
2022/09/27 16:35:41;;;;;;;764.03;509.45;;;;;;;;;;5111086;28;20028;-77
2022/09/27 16:38:29;;;;;;;3.75;2.00;;;;;;;;;;5111116;27;20397;-77
2022/09/27 16:40:59;;;;;;;5.38;1.98;;;;;;;;;;5111237;28;20049;-77
2022/09/27 16:45:17;;;;;;;4.15;2.03;;;;;;;;;;5110796;27;20430;-77
2022/09/27 16:48:09;;;;;;;4.30;1.98;;;;;;;;;;5070933;28;20568;-77
2022/09/27 16:53:20;;;;;;;4.07;1.85;;;;;;;;;;5070558;28;20050;-76
2022/09/27 16:56:30;;;;;;;2.97;1.55;;;;;;;;;;5111655;27;20562;-76
2022/09/27 16:58:57;;;;;;;2.58;1.30;;;;;;;;;;5111038;28;20034;-76
2022/09/27 17:02:24;;;;;;;4.22;1.92;;;;;;;;;;5132192;27;20108;-76
2022/09/27 17:09:43;;;;;;;4.22;1.60;;;;;;;;;;5071521;28;21031;-76
2022/09/27 17:12:10;;;;;;;4.28;1.65;;;;;;;;;;5070397;28;20099;-76
2022/09/27 17:15:21;;;;;;;6.70;2.58;;;;;;;;;;5111429;27;20569;-76
2022/09/27 17:18:44;;;;;;;5.18;2.00;;;;;;;;;;5112148;27;20527;-77
2022/09/27 17:21:11;;;;;;;3.75;2.00;;;;;;;;;;5110927;28;20027;-76
2022/09/27 17:23:37;;;;;;;4.30;2.25;;;;;;;;;;5111207;28;20028;-76
2022/09/27 17:26:05;;;;;;;3.10;1.23;;;;;;;;;;5111165;28;20490;-75
2022/09/27 17:28:31;;;;;;;5.07;1.85;;;;;;;;;;5111326;28;20050;-75
2022/09/27 17:31:04;;;;;;;6.00;2.28;;;;;;;;;;5110956;28;20030;-75
2022/09/27 17:33:31;;;;;;;6.15;2.72;;;;;;;;;;5110711;28;20023;-76
2022/09/27 17:36:36;;;;;;;3.55;2.00;;;;;;;;;;5111375;27;20385;-76